createdAt,value
2019-02-22T00:01:15.442Z,99.57
2019-02-22T00:03:41.195Z,99.69
2019-02-22T00:06:06.946Z,99.63
2019-02-22T00:08:32.704Z,99.73
2019-02-22T00:10:58.460Z,99.68
2019-02-22T00:13:24.208Z,99.54
2019-02-22T00:15:49.955Z,99.35
2019-02-22T00:18:15.713Z,99.33
2019-02-22T00:20:41.501Z,99.49
2019-02-22T00:23:07.269Z,99.58
2019-02-22T00:25:33.013Z,99.48
2019-02-22T00:27:58.774Z,99.55
2019-02-22T00:30:24.522Z,99.60
2019-02-22T00:32:50.408Z,99.66
2019-02-22T00:35:16.179Z,99.52
2019-02-22T00:37:42.021Z,99.50
2019-02-22T00:40:07.790Z,99.49
2019-02-22T00:42:33.558Z,99.48
2019-02-22T00:44:59.314Z,99.36
2019-02-22T00:47:25.101Z,99.46
2019-02-22T00:49:50.857Z,99.48
2019-02-22T00:52:16.622Z,99.32
2019-02-22T00:54:42.392Z,99.36
2019-02-22T00:57:08.147Z,99.43
2019-02-22T00:59:34.004Z,99.37
2019-02-22T01:01:59.752Z,99.15
2019-02-22T01:04:25.513Z,99.28
2019-02-22T01:06:51.258Z,99.30
2019-02-22T01:09:17.032Z,99.21
2019-02-22T01:11:42.791Z,99.09
2019-02-22T01:14:08.542Z,99.08
2019-02-22T01:16:34.309Z,98.94
2019-02-22T01:19:00.072Z,98.90
2019-02-22T01:21:26.028Z,98.95
2019-02-22T01:23:51.792Z,98.97
2019-02-22T01:26:17.556Z,99.03
2019-02-22T01:28:43.416Z,98.90
2019-02-22T01:31:09.181Z,98.94
2019-02-22T01:33:34.916Z,98.97
2019-02-22T01:36:00.878Z,99.06
2019-02-22T01:38:26.615Z,98.91
2019-02-22T01:40:52.477Z,99.01
2019-02-22T01:43:18.221Z,98.89
2019-02-22T01:45:44.115Z,98.71
2019-02-22T01:48:09.863Z,98.65
2019-02-22T01:50:35.626Z,98.52
2019-02-22T01:53:01.373Z,98.53
2019-02-22T01:55:27.148Z,98.48
2019-02-22T01:57:52.982Z,98.53
2019-02-22T02:00:18.763Z,98.43
2019-02-22T02:02:44.507Z,98.50
2019-02-22T02:05:10.252Z,98.47
2019-02-22T02:07:36.013Z,98.27
2019-02-22T02:10:03.433Z,98.27
2019-02-22T02:12:29.194Z,98.29
2019-02-22T02:14:54.940Z,98.24
2019-02-22T02:17:20.753Z,98.19
2019-02-22T02:19:46.498Z,97.98
2019-02-22T02:22:12.251Z,96.23
2019-02-22T02:24:37.991Z,96.89
2019-02-22T02:27:04.256Z,97.10
2019-02-22T02:29:29.996Z,97.12
2019-02-22T02:31:55.762Z,97.27
2019-02-22T02:34:21.515Z,97.21
2019-02-22T02:36:47.297Z,97.28
2019-02-22T02:39:13.061Z,97.42
2019-02-22T02:41:38.821Z,97.42
2019-02-22T02:44:04.566Z,97.19
2019-02-22T02:46:30.325Z,97.20
2019-02-22T02:48:56.085Z,97.11
2019-02-22T02:51:21.969Z,97.17
2019-02-22T02:53:47.733Z,97.20
2019-02-22T02:56:13.491Z,96.97
2019-02-22T02:58:39.394Z,97.03
2019-02-22T03:01:05.332Z,97.08
2019-02-22T03:03:31.084Z,96.90
2019-02-22T03:05:58.727Z,97.00
2019-02-22T03:08:26.432Z,97.07
2019-02-22T03:10:52.181Z,96.84
2019-02-22T03:13:17.940Z,96.84
2019-02-22T03:15:43.693Z,97.03
2019-02-22T03:18:09.457Z,96.73
2019-02-22T03:20:35.214Z,96.97
2019-02-22T03:23:01.016Z,96.84
2019-02-22T03:25:26.771Z,96.77
2019-02-22T03:27:52.587Z,96.93
2019-02-22T03:30:18.335Z,96.88
2019-02-22T03:32:44.096Z,96.75
2019-02-22T03:35:11.772Z,96.91
2019-02-22T03:37:37.533Z,97.09
2019-02-22T03:40:05.382Z,96.94
2019-02-22T03:42:31.159Z,97.12
2019-02-22T03:44:56.899Z,96.97
2019-02-22T03:47:22.652Z,97.16
2019-02-22T03:49:48.497Z,97.27
2019-02-22T03:52:21.687Z,97.26
2019-02-22T03:54:47.690Z,97.18
2019-02-22T03:57:13.825Z,97.07
2019-02-22T03:59:39.594Z,97.03
2019-02-22T04:02:07.283Z,96.87
2019-02-22T04:04:33.086Z,96.55
2019-02-22T04:06:58.801Z,96.17
2019-02-22T04:09:24.555Z,95.95
2019-02-22T04:11:50.296Z,95.74
2019-02-22T04:14:16.062Z,95.83
2019-02-22T04:16:41.820Z,95.76
2019-02-22T04:19:07.590Z,95.28
2019-02-22T04:21:33.351Z,95.45
2019-02-22T04:23:59.110Z,95.20
2019-02-22T04:26:24.858Z,95.54
2019-02-22T04:28:52.513Z,95.96
2019-02-22T04:31:18.285Z,95.82
2019-02-22T04:33:44.043Z,95.74
2019-02-22T04:36:10.001Z,95.76
2019-02-22T04:38:35.840Z,95.72
2019-02-22T04:41:01.606Z,95.43
2019-02-22T04:43:27.362Z,95.61
2019-02-22T04:45:53.135Z,95.43
2019-02-22T04:48:18.886Z,95.42
2019-02-22T04:50:44.653Z,95.59
2019-02-22T04:53:10.403Z,95.23
2019-02-22T04:55:36.228Z,95.23
2019-02-22T04:58:01.978Z,95.16
2019-02-22T05:00:27.738Z,95.10
2019-02-22T05:02:53.498Z,95.29
2019-02-22T05:05:19.281Z,95.20
2019-02-22T05:07:45.025Z,95.13
2019-02-22T05:10:10.791Z,94.82
2019-02-22T05:12:36.545Z,94.88
2019-02-22T05:15:11.794Z,94.61
2019-02-22T05:17:30.974Z,94.60
2019-02-22T05:19:56.718Z,95.01
2019-02-22T05:22:22.638Z,94.90
2019-02-22T05:24:48.412Z,94.71
2019-02-22T05:27:14.160Z,94.73
2019-02-22T05:29:39.910Z,94.90
2019-02-22T05:32:05.673Z,94.82
2019-02-22T05:34:31.432Z,94.67
2019-02-22T05:36:57.207Z,94.52
2019-02-22T05:39:23.022Z,94.58
2019-02-22T05:41:48.785Z,94.41
2019-02-22T05:44:14.542Z,94.54
2019-02-22T05:46:40.319Z,94.53
2019-02-22T05:49:06.073Z,94.37
2019-02-22T05:51:31.825Z,94.36
2019-02-22T05:53:57.587Z,94.32
2019-02-22T05:56:23.374Z,94.15
2019-02-22T05:58:49.123Z,94.06
2019-02-22T06:01:14.888Z,93.84
2019-02-22T06:03:40.644Z,94.24
2019-02-22T06:06:06.417Z,93.76
2019-02-22T06:08:32.172Z,93.92
2019-02-22T06:10:57.943Z,93.49
2019-02-22T06:13:23.804Z,93.25
2019-02-22T06:15:49.558Z,93.15
2019-02-22T06:18:15.325Z,93.23
2019-02-22T06:20:41.076Z,92.99
2019-02-22T06:23:06.834Z,92.94
2019-02-22T06:25:32.603Z,92.51
2019-02-22T06:27:58.374Z,92.44
2019-02-22T06:30:24.122Z,92.54
2019-02-22T06:32:49.880Z,92.58
2019-02-22T06:35:15.643Z,92.44
2019-02-22T06:37:41.415Z,92.56
2019-02-22T06:40:07.885Z,92.66
2019-02-22T06:42:33.652Z,92.41
2019-02-22T06:44:59.399Z,92.50
2019-02-22T06:47:25.162Z,92.29
2019-02-22T06:49:50.918Z,92.36
2019-02-22T06:52:16.681Z,91.95
2019-02-22T06:54:42.453Z,91.97
2019-02-22T06:57:08.259Z,92.07
2019-02-22T06:59:34.005Z,91.85
2019-02-22T07:01:59.756Z,91.85
2019-02-22T07:04:25.522Z,91.65
2019-02-22T07:06:51.269Z,91.45
2019-02-22T07:09:17.039Z,91.35
2019-02-22T07:11:44.687Z,91.28
2019-02-22T07:14:10.460Z,91.16
2019-02-22T07:16:36.205Z,90.32
2019-02-22T07:19:01.969Z,90.31
2019-02-22T07:21:40.174Z,89.80
2019-02-22T07:23:55.401Z,89.65
2019-02-22T07:26:21.149Z,89.34
2019-02-22T07:28:47.062Z,89.03
2019-02-22T07:31:12.860Z,88.58
2019-02-22T07:33:38.627Z,88.73
2019-02-22T07:36:04.385Z,88.33
2019-02-22T07:38:30.161Z,87.97
2019-02-22T07:40:55.926Z,87.79
2019-02-22T07:43:21.697Z,87.74
2019-02-22T07:45:47.461Z,87.75
2019-02-22T07:48:13.246Z,88.01
2019-02-22T07:50:39.000Z,88.06
2019-02-22T07:53:04.761Z,87.96
2019-02-22T07:55:30.533Z,87.17
2019-02-22T07:57:56.277Z,87.15
2019-02-22T08:00:22.045Z,86.97
2019-02-22T08:02:47.797Z,87.18
2019-02-22T08:05:13.558Z,86.35
2019-02-22T08:07:39.317Z,86.80
2019-02-22T08:10:05.185Z,86.52
2019-02-22T08:12:30.963Z,86.25
2019-02-22T08:14:56.711Z,86.14
2019-02-22T08:17:22.465Z,86.06
2019-02-22T08:19:48.226Z,85.50
2019-02-22T08:22:13.974Z,85.50
2019-02-22T08:24:39.744Z,85.70
2019-02-22T08:27:05.494Z,85.19
2019-02-22T08:29:31.276Z,85.20
2019-02-22T08:31:57.039Z,85.34
2019-02-22T08:34:22.813Z,85.34
2019-02-22T08:36:48.568Z,84.97
2019-02-22T08:39:14.333Z,85.06
2019-02-22T08:41:40.085Z,84.77
2019-02-22T08:44:05.854Z,84.68
2019-02-22T08:46:31.605Z,84.57
2019-02-22T08:48:57.365Z,84.35
2019-02-22T08:51:23.123Z,84.36
2019-02-22T08:53:48.892Z,84.88
2019-02-22T08:56:14.656Z,84.77
2019-02-22T08:58:40.405Z,84.52
2019-02-22T09:01:06.176Z,84.70
2019-02-22T09:03:31.964Z,84.07
2019-02-22T09:05:57.706Z,84.49
2019-02-22T09:08:23.458Z,85.07
2019-02-22T09:11:00.077Z,85.07
2019-02-22T09:13:16.875Z,84.88
2019-02-22T09:15:42.652Z,84.95
2019-02-22T09:18:08.411Z,84.76
2019-02-22T09:20:34.182Z,85.00
2019-02-22T09:22:59.933Z,84.43
2019-02-22T09:25:25.698Z,84.15
2019-02-22T09:27:51.462Z,84.22
2019-02-22T09:30:17.230Z,83.79
2019-02-22T09:32:42.985Z,83.28
2019-02-22T09:35:09.553Z,83.51
2019-02-22T09:37:35.309Z,83.24
2019-02-22T09:40:01.080Z,83.03
2019-02-22T09:42:26.838Z,83.53
2019-02-22T09:44:52.610Z,83.51
2019-02-22T09:47:18.362Z,83.25
2019-02-22T09:49:44.122Z,83.13
2019-02-22T09:52:09.890Z,83.37
2019-02-22T09:54:35.678Z,83.51
2019-02-22T09:57:02.067Z,83.83
2019-02-22T09:59:27.902Z,83.92
2019-02-22T10:01:53.678Z,83.48
2019-02-22T10:04:19.434Z,83.66
2019-02-22T10:06:45.201Z,83.33
2019-02-22T10:09:10.958Z,82.74
2019-02-22T10:11:36.738Z,82.58
2019-02-22T10:14:06.643Z,81.66
2019-02-22T10:16:30.262Z,81.74
2019-02-22T10:18:56.013Z,82.29
2019-02-22T10:21:21.780Z,81.46
2019-02-22T10:23:47.537Z,81.73
2019-02-22T10:26:13.303Z,82.39
2019-02-22T10:28:39.063Z,81.94
2019-02-22T10:31:04.834Z,81.92
2019-02-22T10:33:36.690Z,80.98
2019-02-22T10:35:58.245Z,79.44
2019-02-22T10:38:24.019Z,79.92
2019-02-22T10:40:49.794Z,80.51
2019-02-22T10:43:15.538Z,80.27
2019-02-22T10:45:41.302Z,80.30
2019-02-22T10:48:07.063Z,80.34
2019-02-22T10:50:32.839Z,80.34
2019-02-22T10:53:02.292Z,79.54
2019-02-22T10:55:26.492Z,79.60
2019-02-22T10:57:52.266Z,79.80
2019-02-22T11:00:18.015Z,79.58
2019-02-22T11:02:43.778Z,79.88
2019-02-22T11:05:09.639Z,80.89
2019-02-22T11:07:37.221Z,80.07
2019-02-22T11:10:06.710Z,80.26
2019-02-22T11:12:32.479Z,79.86
2019-02-22T11:14:58.253Z,79.43
2019-02-22T11:17:24.099Z,79.22
2019-02-22T11:19:49.855Z,79.92
2019-02-22T11:22:15.620Z,79.26
2019-02-22T11:24:41.400Z,77.14
2019-02-22T11:27:07.199Z,76.14
2019-02-22T11:29:32.954Z,76.34
2019-02-22T11:31:58.742Z,76.35
2019-02-22T11:34:24.488Z,74.10
2019-02-22T11:36:50.264Z,73.39
2019-02-22T11:39:16.100Z,72.14
2019-02-22T11:41:41.971Z,70.87
2019-02-22T11:44:07.751Z,71.14
2019-02-22T11:46:33.509Z,71.66
2019-02-22T11:48:59.266Z,73.60
2019-02-22T11:51:25.050Z,74.33
2019-02-22T11:53:50.809Z,74.52
2019-02-22T11:56:16.677Z,75.24
2019-02-22T11:58:42.445Z,72.82
2019-02-22T12:01:08.420Z,71.28
2019-02-22T12:03:34.169Z,70.42
2019-02-22T12:05:59.913Z,70.70
2019-02-22T12:08:25.685Z,70.83
2019-02-22T12:10:51.442Z,68.54
2019-02-22T12:13:17.211Z,68.26
2019-02-22T12:15:42.974Z,67.79
2019-02-22T12:18:08.746Z,68.95
2019-02-22T12:20:34.502Z,68.79
2019-02-22T12:23:00.267Z,67.89
2019-02-22T12:25:26.025Z,68.48
2019-02-22T12:27:51.784Z,67.01
2019-02-22T12:30:17.543Z,67.26
2019-02-22T12:32:43.312Z,68.59
2019-02-22T12:35:09.076Z,68.24
2019-02-22T12:37:34.836Z,68.28
2019-02-22T12:40:00.584Z,67.47
2019-02-22T12:42:26.368Z,67.69
2019-02-22T12:45:02.314Z,67.74
2019-02-22T12:47:19.839Z,67.18
2019-02-22T12:49:45.591Z,66.85
2019-02-22T12:52:11.365Z,67.17
2019-02-22T12:54:37.123Z,67.04
2019-02-22T12:57:02.898Z,66.47
2019-02-22T12:59:28.683Z,66.46
2019-02-22T13:01:54.439Z,66.27
2019-02-22T13:04:20.310Z,67.96
2019-02-22T13:06:46.072Z,66.01
2019-02-22T13:09:11.836Z,67.50
2019-02-22T13:11:37.589Z,66.96
2019-02-22T13:14:03.352Z,67.70
2019-02-22T13:16:29.097Z,66.92
2019-02-22T13:18:54.864Z,66.57
2019-02-22T13:21:20.616Z,66.76
2019-02-22T13:23:46.371Z,68.40
2019-02-22T13:26:12.118Z,67.10
2019-02-22T13:28:37.876Z,67.97
2019-02-22T13:31:03.624Z,66.97
2019-02-22T13:33:29.383Z,66.77
2019-02-22T13:35:55.129Z,67.26
2019-02-22T13:38:20.894Z,65.65
2019-02-22T13:40:49.121Z,66.78
2019-02-22T13:43:14.327Z,67.17
2019-02-22T13:45:40.181Z,66.58
2019-02-22T13:48:05.954Z,67.68
2019-02-22T13:50:31.714Z,67.15
2019-02-22T13:52:57.465Z,68.37
2019-02-22T13:55:23.357Z,66.96
2019-02-22T13:57:49.160Z,67.31
2019-02-22T14:00:17.591Z,67.76
2019-02-22T14:02:43.360Z,67.28
2019-02-22T14:05:09.279Z,67.07
2019-02-22T14:07:35.029Z,66.74
2019-02-22T14:10:00.793Z,67.98
2019-02-22T14:12:27.125Z,67.64
2019-02-22T14:14:52.878Z,67.88
2019-02-22T14:17:18.638Z,67.73
2019-02-22T14:19:44.403Z,67.81
2019-02-22T14:22:10.167Z,68.05
2019-02-22T14:24:35.931Z,68.35
2019-02-22T14:27:01.689Z,68.99
2019-02-22T14:29:27.455Z,68.55
2019-02-22T14:31:53.210Z,68.39
2019-02-22T14:34:18.969Z,67.70
2019-02-22T14:36:44.721Z,68.00
2019-02-22T14:39:10.739Z,68.20
2019-02-22T14:41:37.437Z,68.38
2019-02-22T14:44:03.511Z,68.41
2019-02-22T14:46:29.273Z,68.47
2019-02-22T14:48:55.055Z,68.10
2019-02-22T14:51:20.802Z,69.02
2019-02-22T14:53:46.550Z,69.32
2019-02-22T14:56:12.322Z,69.48
2019-02-22T14:58:38.080Z,69.04
2019-02-22T15:01:04.146Z,68.45
2019-02-22T15:03:29.901Z,67.95
2019-02-22T15:05:55.661Z,67.30
2019-02-22T15:08:21.421Z,67.62
2019-02-22T15:10:47.178Z,66.95
2019-02-22T15:13:16.705Z,67.69
2019-02-22T15:16:01.061Z,68.26
2019-02-22T15:18:26.368Z,68.48
2019-02-22T15:20:52.135Z,68.80
2019-02-22T15:23:17.895Z,68.86
2019-02-22T15:25:43.658Z,69.41
2019-02-22T15:28:09.420Z,69.45
2019-02-22T15:30:35.190Z,69.00
2019-02-22T15:33:00.943Z,70.07
2019-02-22T15:35:26.706Z,69.51
2019-02-22T15:37:52.454Z,69.55
2019-02-22T15:40:18.228Z,69.65
2019-02-22T15:42:43.984Z,69.86
2019-02-22T15:45:17.118Z,69.85
2019-02-22T15:47:42.842Z,70.30
2019-02-22T15:50:13.422Z,70.51
2019-02-22T15:52:39.185Z,70.93
2019-02-22T15:55:05.961Z,71.06
2019-02-22T15:57:31.728Z,70.59
2019-02-22T15:59:57.494Z,70.60
2019-02-22T16:02:23.250Z,70.72
2019-02-22T16:04:50.940Z,70.90
2019-02-22T16:07:16.696Z,71.71
2019-02-22T16:09:42.658Z,71.91
2019-02-22T16:12:08.414Z,72.18
2019-02-22T16:14:34.174Z,72.37
2019-02-22T16:16:59.952Z,72.47
2019-02-22T16:19:25.715Z,72.94
2019-02-22T16:21:51.490Z,72.94
2019-02-22T16:24:17.248Z,73.31
2019-02-22T16:26:43.025Z,73.10
2019-02-22T16:29:08.782Z,73.05
2019-02-22T16:31:34.552Z,73.61
2019-02-22T16:34:00.302Z,73.37
2019-02-22T16:36:26.067Z,73.23
2019-02-22T16:38:51.825Z,73.76
2019-02-22T16:41:17.585Z,73.94
2019-02-22T16:43:43.345Z,73.97
2019-02-22T16:46:09.119Z,73.93
2019-02-22T16:48:34.877Z,74.46
2019-02-22T16:51:00.652Z,74.32
2019-02-22T16:53:26.419Z,74.52
2019-02-22T16:55:52.191Z,74.74
2019-02-22T16:58:17.957Z,74.67
2019-02-22T17:00:43.708Z,75.09
2019-02-22T17:03:09.491Z,75.03
2019-02-22T17:05:35.251Z,75.03
2019-02-22T17:08:01.030Z,75.10
2019-02-22T17:10:26.786Z,75.38
2019-02-22T17:12:52.558Z,75.29
2019-02-22T17:15:18.317Z,75.21
2019-02-22T17:17:44.089Z,75.46
2019-02-22T17:20:13.459Z,75.43
2019-02-22T17:22:39.251Z,76.00
2019-02-22T17:25:08.006Z,75.68
2019-02-22T17:27:33.779Z,75.51
2019-02-22T17:29:59.524Z,75.64
2019-02-22T17:32:25.289Z,76.43
2019-02-22T17:34:51.038Z,76.39
2019-02-22T17:37:16.804Z,76.52
2019-02-22T17:39:42.549Z,76.31
2019-02-22T17:42:08.336Z,76.41
2019-02-22T17:44:34.082Z,76.37
2019-02-22T17:46:59.847Z,76.65
2019-02-22T17:49:25.597Z,76.24
2019-02-22T17:51:51.363Z,76.58
2019-02-22T17:54:17.113Z,76.51
2019-02-22T17:56:42.936Z,76.66
2019-02-22T17:59:08.684Z,76.61
2019-02-22T18:01:34.435Z,77.09
2019-02-22T18:04:00.204Z,77.08
2019-02-22T18:06:25.954Z,77.35
2019-02-22T18:08:51.732Z,77.27
2019-02-22T18:11:17.482Z,77.60
2019-02-22T18:13:43.246Z,77.82
2019-02-22T18:16:08.996Z,77.66
2019-02-22T18:18:34.774Z,77.66
2019-02-22T18:21:00.524Z,77.85
2019-02-22T18:23:26.289Z,78.11
2019-02-22T18:25:52.038Z,78.65
2019-02-22T18:28:17.819Z,78.49
2019-02-22T18:30:43.569Z,79.00
2019-02-22T18:33:09.334Z,79.38
2019-02-22T18:35:35.098Z,78.99
2019-02-22T18:38:00.870Z,79.26
2019-02-22T18:40:26.725Z,79.57
2019-02-22T18:42:52.505Z,79.08
2019-02-22T18:45:18.340Z,80.29
2019-02-22T18:47:44.122Z,80.09
2019-02-22T18:50:10.235Z,79.37
2019-02-22T18:52:36.020Z,80.08
2019-02-22T18:55:01.793Z,80.66
2019-02-22T18:57:27.565Z,80.69
2019-02-22T18:59:53.330Z,80.87
2019-02-22T19:02:19.095Z,81.26
2019-02-22T19:04:44.857Z,80.87
2019-02-22T19:07:10.606Z,80.92
2019-02-22T19:09:36.377Z,80.63
2019-02-22T19:12:02.134Z,80.82
2019-02-22T19:14:27.901Z,81.33
2019-02-22T19:16:53.657Z,81.32
2019-02-22T19:19:19.425Z,81.12
2019-02-22T19:21:45.179Z,81.33
2019-02-22T19:24:10.954Z,81.70
2019-02-22T19:26:36.711Z,81.59
2019-02-22T19:29:02.493Z,81.58
2019-02-22T19:31:28.250Z,81.85
2019-02-22T19:33:54.017Z,81.94
2019-02-22T19:36:19.782Z,81.80
2019-02-22T19:38:45.549Z,81.76
2019-02-22T19:41:11.302Z,81.76
2019-02-22T19:43:37.075Z,82.59
2019-02-22T19:46:02.828Z,82.35
2019-02-22T19:48:28.589Z,81.85
2019-02-22T19:50:54.338Z,82.08
2019-02-22T19:53:21.548Z,82.12
2019-02-22T19:55:47.363Z,82.14
2019-02-22T19:58:13.133Z,81.93
2019-02-22T20:00:38.902Z,81.96
2019-02-22T20:03:04.770Z,82.55
2019-02-22T20:05:30.554Z,83.10
2019-02-22T20:07:56.305Z,82.39
2019-02-22T20:10:22.582Z,83.21
2019-02-22T20:12:48.402Z,83.93
2019-02-22T20:15:15.508Z,83.07
2019-02-22T20:17:52.625Z,83.54
2019-02-22T20:20:11.956Z,84.11
2019-02-22T20:22:37.707Z,83.83
2019-02-22T20:25:04.285Z,83.73
2019-02-22T20:27:30.026Z,83.57
2019-02-22T20:29:55.795Z,83.61
2019-02-22T20:32:21.551Z,83.66
2019-02-22T20:34:47.321Z,83.46
2019-02-22T20:37:13.272Z,83.03
2019-02-22T20:39:39.149Z,82.74
2019-02-22T20:42:04.904Z,82.88
2019-02-22T20:44:30.682Z,82.68
2019-02-22T20:46:56.443Z,83.25
2019-02-22T20:49:22.202Z,82.75
2019-02-22T20:51:47.965Z,83.38
2019-02-22T20:54:13.732Z,83.39
2019-02-22T20:56:39.495Z,83.23
2019-02-22T20:59:05.253Z,83.69
2019-02-22T21:01:31.017Z,83.44
2019-02-22T21:03:56.773Z,83.12
2019-02-22T21:06:22.538Z,83.06
2019-02-22T21:08:48.289Z,82.94
2019-02-22T21:11:14.050Z,83.15
2019-02-22T21:13:39.803Z,83.13
2019-02-22T21:16:05.570Z,82.58
2019-02-22T21:18:31.331Z,82.71
2019-02-22T21:20:57.094Z,83.33
2019-02-22T21:23:22.855Z,82.97
2019-02-22T21:25:48.628Z,82.72
2019-02-22T21:28:14.376Z,83.05
2019-02-22T21:30:40.143Z,82.27
2019-02-22T21:33:05.900Z,82.80
2019-02-22T21:35:31.666Z,82.40
2019-02-22T21:37:57.429Z,82.69
2019-02-22T21:40:23.199Z,82.29
2019-02-22T21:42:48.965Z,82.64
2019-02-22T21:45:15.536Z,82.67
2019-02-22T21:47:41.289Z,82.41
2019-02-22T21:50:09.458Z,82.62
2019-02-22T21:52:35.214Z,82.42
2019-02-22T21:55:00.987Z,82.78
2019-02-22T21:57:26.755Z,82.43
2019-02-22T21:59:52.540Z,82.10
2019-02-22T22:02:18.295Z,82.46
2019-02-22T22:04:44.136Z,82.02
2019-02-22T22:07:09.968Z,81.99
2019-02-22T22:09:35.727Z,82.22
2019-02-22T22:12:01.486Z,82.23
2019-02-22T22:14:27.242Z,81.85
2019-02-22T22:16:53.006Z,81.48
2019-02-22T22:19:18.763Z,81.49
2019-02-22T22:21:45.245Z,81.28
2019-02-22T22:24:11.082Z,81.22
2019-02-22T22:26:36.861Z,80.96
2019-02-22T22:29:02.714Z,81.41
2019-02-22T22:31:28.480Z,81.07
2019-02-22T22:33:54.240Z,81.02
2019-02-22T22:36:19.997Z,81.49
2019-02-22T22:38:45.748Z,81.83
2019-02-22T22:41:11.521Z,81.84
2019-02-22T22:43:37.274Z,81.26
2019-02-22T22:46:03.058Z,81.28
2019-02-22T22:48:28.814Z,81.53
2019-02-22T22:50:54.567Z,81.68
2019-02-22T22:53:20.338Z,81.54
2019-02-22T22:55:46.889Z,81.58
2019-02-22T22:58:12.679Z,81.58
2019-02-22T23:00:46.747Z,81.33
2019-02-22T23:03:12.531Z,81.48
2019-02-22T23:05:38.278Z,81.31
2019-02-22T23:08:04.052Z,81.24
2019-02-22T23:10:29.793Z,81.09
2019-02-22T23:12:55.558Z,81.03
2019-02-22T23:15:21.338Z,80.90
2019-02-22T23:17:47.098Z,80.91
2019-02-22T23:20:12.861Z,80.97
2019-02-22T23:22:38.632Z,81.03
2019-02-22T23:25:04.413Z,80.86
2019-02-22T23:27:30.278Z,80.78
2019-02-22T23:29:56.028Z,81.02
2019-02-22T23:32:21.796Z,80.90
2019-02-22T23:34:47.548Z,80.99
2019-02-22T23:37:13.303Z,80.98
2019-02-22T23:39:39.073Z,81.15
2019-02-22T23:42:04.824Z,81.26
2019-02-22T23:44:30.591Z,80.65
2019-02-22T23:46:56.342Z,80.86
2019-02-22T23:49:22.115Z,80.67
2019-02-22T23:51:47.872Z,80.59
2019-02-22T23:54:13.635Z,80.72
2019-02-22T23:56:39.415Z,80.45
2019-02-22T23:59:05.173Z,80.50
